Time;durP1;ratioP1;P1;durP2;ratioP2;P2;SDS_P1;SDS_P2;PMS_P1;PMS_P2;Temp;Humidity;BMP_temperature;BMP_pressure;BME280_temperature;BME280_humidity;BME280_pressure;Samples;Min_cycle;Max_cycle;Signal;HPM_P1;HPM_P2
2022/04/05 00:01:30;;;;;;;41.55;22.58;;;10.80;92.50;;;;;;5022701;28;20033;-86
2022/04/05 00:03:56;;;;;;;39.83;23.35;;;10.80;92.50;;;;;;5002675;28;20061;-79
2022/04/05 00:06:22;;;;;;;43.78;22.08;;;10.80;92.50;;;;;;5023321;28;20538;-82
2022/04/05 00:08:48;;;;;;;35.88;23.17;;;10.80;92.50;;;;;;5021824;28;20111;-81
2022/04/05 00:11:13;;;;;;;44.25;22.10;;;10.80;92.50;;;;;;5018737;28;20033;-81
2022/04/05 00:13:39;;;;;;;44.25;23.15;;;10.80;92.50;;;;;;5024443;28;20489;-77
2022/04/05 00:16:05;;;;;;;40.17;23.00;;;10.80;92.40;;;;;;5019936;28;20034;-81
2022/04/05 00:18:31;;;;;;;41.95;22.92;;;10.90;92.40;;;;;;5019467;28;20592;-82
2022/04/05 00:20:57;;;;;;;37.58;22.90;;;10.80;92.30;;;;;;5028103;28;20034;-75
2022/04/05 00:23:23;;;;;;;38.88;23.20;;;10.80;92.40;;;;;;5020967;28;20095;-80
2022/04/05 00:25:49;;;;;;;42.08;23.10;;;10.80;92.50;;;;;;5022971;28;20045;-81
2022/04/05 00:28:15;;;;;;;42.38;24.35;;;10.80;92.50;;;;;;5021302;28;20037;-79
2022/04/05 00:30:40;;;;;;;37.45;23.60;;;10.90;92.50;;;;;;5021032;28;20129;-78
2022/04/05 00:33:06;;;;;;;42.22;24.08;;;10.90;92.40;;;;;;5021691;28;20048;-83
2022/04/05 00:35:31;;;;;;;38.50;22.63;;;10.90;92.30;;;;;;5023353;28;20041;-75
2022/04/05 00:37:57;;;;;;;38.30;22.20;;;10.80;92.40;;;;;;5023349;28;20037;-76
2022/04/05 00:40:25;;;;;;;39.42;22.25;;;10.80;92.40;;;;;;5021390;28;20417;-76
2022/04/05 00:42:51;;;;;;;37.40;21.42;;;10.80;92.40;;;;;;5017796;28;20038;-81
2022/04/05 00:45:20;;;;;;;35.78;22.40;;;10.90;92.40;;;;;;5022309;28;20037;-78
2022/04/05 00:47:49;;;;;;;38.13;23.75;;;10.90;92.30;;;;;;5022774;28;20037;-81
2022/04/05 00:50:19;;;;;;;42.03;22.88;;;10.90;92.20;;;;;;5019670;28;20083;-77
2022/04/05 00:52:45;;;;;;;34.75;22.48;;;10.90;92.30;;;;;;5000438;28;20046;-77
2022/04/05 00:55:11;;;;;;;41.70;23.83;;;10.90;92.30;;;;;;5022763;28;20037;-80
2022/04/05 00:57:39;;;;;;;37.42;22.02;;;10.90;92.30;;;;;;5022480;28;20037;-75
2022/04/05 01:00:07;;;;;;;38.25;21.27;;;10.90;92.20;;;;;;5023438;28;20045;-77
2022/04/05 01:02:37;;;;;;;35.38;21.35;;;10.90;92.20;;;;;;5015726;28;20403;-79
2022/04/05 01:05:04;;;;;;;34.10;21.25;;;10.90;92.20;;;;;;5021274;28;20051;-80
2022/04/05 01:07:33;;;;;;;39.20;22.98;;;10.90;92.20;;;;;;5023820;28;20045;-78
2022/04/05 01:09:59;;;;;;;33.38;22.85;;;10.90;92.20;;;;;;5023338;28;20041;-81
2022/04/05 01:12:25;;;;;;;39.17;21.17;;;10.80;92.30;;;;;;5018265;28;20374;-76
2022/04/05 01:14:51;;;;;;;42.17;22.23;;;10.90;92.20;;;;;;5022957;28;20041;-84
2022/04/05 01:17:18;;;;;;;36.95;20.90;;;10.90;92.20;;;;;;5024256;28;20071;-82
2022/04/05 01:19:46;;;;;;;36.95;21.75;;;11.00;92.10;;;;;;5024548;28;20396;-81
2022/04/05 01:22:12;;;;;;;38.10;20.60;;;11.00;91.90;;;;;;5019437;28;20111;-77
2022/04/05 01:24:38;;;;;;;34.22;20.67;;;11.00;91.80;;;;;;5021388;28;20029;-82
2022/04/05 01:27:06;;;;;;;35.08;20.40;;;11.00;91.90;;;;;;5004325;28;20252;-80
2022/04/05 01:29:32;;;;;;;34.35;20.38;;;11.00;91.70;;;;;;5023153;28;20346;-83
2022/04/05 01:32:04;;;;;;;33.90;19.42;;;11.00;91.80;;;;;;5022348;28;20382;-77
2022/04/05 01:34:31;;;;;;;36.25;21.63;;;11.10;91.90;;;;;;5014890;28;20262;-85
2022/04/05 01:36:59;;;;;;;28.77;19.92;;;11.10;91.70;;;;;;5021769;28;20034;-77
2022/04/05 01:39:27;;;;;;;32.17;21.20;;;11.10;91.70;;;;;;5021982;28;20065;-77
2022/04/05 01:41:56;;;;;;;30.63;20.92;;;11.10;91.60;;;;;;5001629;28;20156;-79
2022/04/05 01:44:22;;;;;;;33.53;19.83;;;11.10;91.80;;;;;;5019935;28;20041;-83
2022/04/05 01:46:48;;;;;;;27.33;19.15;;;11.10;91.70;;;;;;5013192;28;20481;-79
2022/04/05 01:49:14;;;;;;;28.90;19.52;;;11.10;91.80;;;;;;5021648;28;20045;-76
2022/04/05 01:51:40;;;;;;;33.47;19.25;;;11.10;91.70;;;;;;5022430;28;20041;-81
2022/04/05 01:54:08;;;;;;;32.78;18.60;;;11.10;91.70;;;;;;5021407;28;20033;-77
2022/04/05 01:56:42;;;;;;;29.55;18.73;;;11.10;91.60;;;;;;5005591;28;20435;-75
2022/04/05 01:59:09;;;;;;;;;;;11.20;91.60;;;;;;5017371;28;20053;-76
2022/04/05 02:01:34;;;;;;;26.48;16.42;;;11.10;91.50;;;;;;5001612;28;20252;-78
2022/04/05 02:04:00;;;;;;;27.40;16.75;;;11.10;91.50;;;;;;5019557;28;20057;-75
2022/04/05 02:06:27;;;;;;;28.10;18.58;;;11.10;91.50;;;;;;5020429;28;20784;-76
2022/04/05 02:08:52;;;;;;;30.05;19.05;;;11.10;91.40;;;;;;5021538;28;20055;-77
2022/04/05 02:11:18;;;;;;;28.60;18.58;;;11.10;91.40;;;;;;5019599;28;20029;-77
2022/04/05 02:13:44;;;;;;;27.05;17.63;;;11.10;91.50;;;;;;5017712;28;20931;-80
2022/04/05 02:16:09;;;;;;;27.00;17.80;;;11.20;91.40;;;;;;5017771;28;20469;-76
2022/04/05 02:18:37;;;;;;;26.80;17.08;;;11.20;91.40;;;;;;5021850;28;20045;-74
2022/04/05 02:21:03;;;;;;;25.25;16.17;;;11.20;91.10;;;;;;5006463;28;20049;-77
2022/04/05 02:23:29;;;;;;;26.33;15.80;;;11.20;91.10;;;;;;5023780;28;20695;-81
2022/04/05 02:25:55;;;;;;;26.25;16.38;;;11.20;91.10;;;;;;5025731;28;20056;-75
2022/04/05 02:28:20;;;;;;;26.08;16.60;;;11.20;91.10;;;;;;5024572;28;21422;-83
2022/04/05 02:30:46;;;;;;;26.75;16.52;;;11.10;91.10;;;;;;5007522;28;20045;-77
2022/04/05 02:33:12;;;;;;;28.35;17.25;;;11.20;91.10;;;;;;5022243;28;20030;-79
2022/04/05 02:35:38;;;;;;;28.90;18.17;;;11.30;91.00;;;;;;5025844;28;20057;-78
2022/04/05 02:38:04;;;;;;;27.77;17.77;;;11.20;90.90;;;;;;5024268;28;20057;-80
2022/04/05 02:40:30;;;;;;;26.50;16.92;;;11.20;90.90;;;;;;5024979;28;20041;-87
2022/04/05 02:42:56;;;;;;;28.42;17.17;;;11.20;91.00;;;;;;5007139;28;20719;-75
2022/04/05 02:45:22;;;;;;;29.00;16.85;;;11.20;91.20;;;;;;5025363;28;20029;-79
2022/04/05 02:47:48;;;;;;;26.77;15.23;;;11.20;91.00;;;;;;5007678;28;20684;-77
2022/04/05 02:50:17;;;;;;;26.17;16.48;;;11.10;91.00;;;;;;5024648;28;20030;-80
2022/04/05 02:52:45;;;;;;;30.70;16.35;;;11.20;91.10;;;;;;5024523;28;20030;-79
2022/04/05 02:55:11;;;;;;;24.25;16.73;;;11.30;90.90;;;;;;5025185;28;20508;-74
2022/04/05 02:57:38;;;;;;;27.27;16.40;;;11.20;90.90;;;;;;5025211;28;20064;-78
2022/04/05 03:00:07;;;;;;;27.77;16.17;;;11.20;91.00;;;;;;5024351;28;20041;-81
2022/04/05 03:02:34;;;;;;;27.00;14.88;;;11.10;91.10;;;;;;5023374;28;20029;-80
2022/04/05 03:05:01;;;;;;;26.10;16.13;;;11.10;90.90;;;;;;5024231;28;20133;-78
2022/04/05 03:07:27;;;;;;;25.58;16.02;;;11.20;91.00;;;;;;5026355;28;20029;-80
2022/04/05 03:09:53;;;;;;;25.35;15.93;;;11.20;91.00;;;;;;5022248;28;20037;-76
2022/04/05 03:12:18;;;;;;;23.98;15.88;;;11.10;91.00;;;;;;5025012;28;20395;-76
2022/04/05 03:14:45;;;;;;;26.48;16.27;;;11.10;91.10;;;;;;5005637;28;20061;-77
2022/04/05 03:17:12;;;;;;;25.25;15.85;;;11.10;91.10;;;;;;5024753;28;20049;-76
2022/04/05 03:19:38;;;;;;;29.13;18.15;;;11.10;91.20;;;;;;5017571;28;20029;-75
2022/04/05 03:22:05;;;;;;;26.63;15.95;;;11.10;91.30;;;;;;5024648;28;20639;-76
2022/04/05 03:24:31;;;;;;;24.15;15.88;;;11.10;91.30;;;;;;5024406;28;20029;-78
2022/04/05 03:26:58;;;;;;;24.20;16.05;;;11.10;91.30;;;;;;5025702;28;20034;-75
2022/04/05 03:29:23;;;;;;;27.75;16.30;;;11.10;91.30;;;;;;5024949;28;20069;-80
2022/04/05 03:31:49;;;;;;;26.60;17.23;;;11.10;91.40;;;;;;5022820;28;20080;-77
2022/04/05 03:34:16;;;;;;;26.10;16.35;;;11.10;91.40;;;;;;5024819;28;20049;-75
2022/04/05 03:36:43;;;;;;;20.15;15.57;;;11.10;91.60;;;;;;5008364;28;20061;-77
2022/04/05 03:39:10;;;;;;;20.90;15.77;;;11.10;91.70;;;;;;5025580;28;20041;-83
2022/04/05 03:41:36;;;;;;;23.13;17.15;;;11.10;91.90;;;;;;5024632;28;20030;-75
2022/04/05 03:44:03;;;;;;;21.42;16.35;;;11.10;91.90;;;;;;5026011;28;20124;-76
2022/04/05 03:46:28;;;;;;;27.33;16.40;;;11.00;92.00;;;;;;5026551;28;20762;-76
2022/04/05 03:48:54;;;;;;;23.23;16.40;;;11.10;92.00;;;;;;5022788;28;20465;-84
2022/04/05 03:51:20;;;;;;;21.63;15.40;;;11.10;92.00;;;;;;5026903;28;20040;-81
2022/04/05 03:53:46;;;;;;;20.77;14.98;;;11.10;91.90;;;;;;5029156;28;20046;-80
2022/04/05 03:56:11;;;;;;;23.65;15.13;;;11.10;91.80;;;;;;5025251;28;20034;-77
2022/04/05 03:58:37;;;;;;;22.00;14.27;;;11.10;91.90;;;;;;5029282;28;20120;-78
2022/04/05 04:01:03;;;;;;;24.58;15.75;;;11.10;92.00;;;;;;5010905;28;20125;-79
2022/04/05 04:03:28;;;;;;;21.25;15.25;;;11.10;92.00;;;;;;5012435;28;20138;-78
2022/04/05 04:05:54;;;;;;;23.35;15.77;;;11.00;92.00;;;;;;5025010;28;20120;-82
2022/04/05 04:08:20;;;;;;;21.35;15.38;;;11.00;92.00;;;;;;5022808;28;20073;-79
2022/04/05 04:10:48;;;;;;;22.60;15.30;;;11.00;92.10;;;;;;5003005;28;20033;-78
2022/04/05 04:13:15;;;;;;;22.70;14.85;;;11.00;92.00;;;;;;5020177;28;20029;-82
2022/04/05 04:15:41;;;;;;;24.02;15.75;;;11.00;92.00;;;;;;5005468;28;20500;-77
2022/04/05 04:18:07;;;;;;;21.92;14.45;;;11.00;92.00;;;;;;5027558;28;20038;-76
2022/04/05 04:20:32;;;;;;;19.23;13.90;;;11.00;92.00;;;;;;5030004;28;20053;-75
2022/04/05 04:22:58;;;;;;;22.10;15.07;;;11.00;92.00;;;;;;5027735;28;20393;-77
2022/04/05 04:25:24;;;;;;;22.42;14.68;;;11.00;92.10;;;;;;5023879;28;20034;-81
2022/04/05 04:27:50;;;;;;;20.77;14.88;;;11.00;92.20;;;;;;5026286;28;20045;-76
2022/04/05 04:30:16;;;;;;;21.13;14.65;;;10.90;92.20;;;;;;5029140;28;20084;-78
2022/04/05 04:32:41;;;;;;;24.55;16.05;;;10.90;92.20;;;;;;5030779;28;20037;-77
2022/04/05 04:35:08;;;;;;;24.63;16.60;;;11.00;92.30;;;;;;5028176;28;20492;-77
2022/04/05 04:37:35;;;;;;;23.08;16.10;;;10.90;92.20;;;;;;5028974;28;20036;-80
2022/04/05 04:40:00;;;;;;;23.88;15.27;;;11.00;92.30;;;;;;5029379;28;20053;-79
2022/04/05 04:42:26;;;;;;;23.05;15.77;;;10.90;92.20;;;;;;5026631;28;20037;-78
2022/04/05 04:44:52;;;;;;;23.58;15.20;;;11.00;92.20;;;;;;5026507;28;20029;-76
2022/04/05 04:47:17;;;;;;;19.67;14.43;;;10.90;92.30;;;;;;5027346;28;20091;-79
2022/04/05 04:49:44;;;;;;;23.83;14.75;;;11.00;92.20;;;;;;5027503;28;20030;-74
2022/04/05 04:52:10;;;;;;;19.65;13.85;;;10.90;92.20;;;;;;5022898;28;20068;-76
2022/04/05 04:54:36;;;;;;;23.10;15.73;;;10.90;92.20;;;;;;5029793;28;20030;-77
2022/04/05 04:57:02;;;;;;;23.15;15.23;;;10.90;92.20;;;;;;5026358;28;20037;-76
2022/04/05 04:59:28;;;;;;;23.38;15.38;;;10.90;92.20;;;;;;5027959;28;20088;-76
2022/04/05 05:01:54;;;;;;;22.60;15.13;;;10.90;92.20;;;;;;5029945;28;20551;-76
2022/04/05 05:04:19;;;;;;;19.98;14.95;;;10.90;92.20;;;;;;5027324;28;20614;-80
2022/04/05 05:06:45;;;;;;;24.60;17.13;;;10.90;92.10;;;;;;5030139;28;20050;-76
2022/04/05 05:09:11;;;;;;;22.88;15.27;;;10.90;92.10;;;;;;5029671;28;20132;-79
2022/04/05 05:11:36;;;;;;;24.20;16.27;;;10.90;92.00;;;;;;5029336;28;20468;-78
2022/04/05 05:14:02;;;;;;;25.67;16.50;;;10.90;92.00;;;;;;5022331;28;20048;-76
2022/04/05 05:16:28;;;;;;;22.77;15.82;;;11.00;92.00;;;;;;5024352;28;20060;-76
2022/04/05 05:18:54;;;;;;;23.85;15.32;;;11.00;91.90;;;;;;5026896;28;20041;-79
2022/04/05 05:21:20;;;;;;;20.20;16.08;;;10.90;92.10;;;;;;5009086;28;20041;-76
2022/04/05 05:23:46;;;;;;;23.30;16.73;;;10.90;92.20;;;;;;5013114;28;20116;-77
2022/04/05 05:26:12;;;;;;;26.83;17.92;;;10.90;92.20;;;;;;5006499;28;20181;-83
2022/04/05 05:28:38;;;;;;;23.08;15.98;;;10.90;92.20;;;;;;5023783;28;20029;-75
2022/04/05 05:31:04;;;;;;;23.60;16.80;;;10.90;92.10;;;;;;5005549;28;20542;-77
2022/04/05 05:33:31;;;;;;;23.75;16.05;;;10.90;92.00;;;;;;5025315;28;20033;-80
2022/04/05 05:35:57;;;;;;;22.65;16.23;;;11.00;92.00;;;;;;5021194;28;20037;-77
2022/04/05 05:38:22;;;;;;;21.48;16.88;;;11.00;92.00;;;;;;5020473;28;20469;-76
2022/04/05 05:40:48;;;;;;;21.27;15.88;;;11.00;92.00;;;;;;5026688;28;20037;-80
2022/04/05 05:43:14;;;;;;;24.33;17.88;;;10.90;92.00;;;;;;5025097;28;20703;-77
2022/04/05 05:45:40;;;;;;;27.17;17.95;;;11.00;92.00;;;;;;5027020;28;20049;-77
2022/04/05 05:48:06;;;;;;;26.30;18.40;;;11.00;92.00;;;;;;5024290;28;20389;-76
2022/04/05 05:50:33;;;;;;;26.33;18.98;;;10.90;92.00;;;;;;5026307;28;20208;-73
2022/04/05 05:52:59;;;;;;;25.70;20.17;;;11.00;92.20;;;;;;5024168;28;20050;-75
2022/04/05 05:55:25;;;;;;;20.48;17.17;;;10.90;92.10;;;;;;5019778;28;20042;-77
2022/04/05 05:57:51;;;;;;;24.05;18.35;;;10.90;92.20;;;;;;5027203;28;20180;-78
2022/04/05 06:00:21;;;;;;;25.08;18.83;;;11.00;92.10;;;;;;5026516;28;20132;-79
2022/04/05 06:02:49;;;;;;;23.48;18.05;;;11.00;92.10;;;;;;5026936;28;20385;-76
2022/04/05 06:05:15;;;;;;;23.20;17.00;;;11.00;92.10;;;;;;5025978;28;20068;-83
2022/04/05 06:07:41;;;;;;;23.17;16.27;;;11.00;92.10;;;;;;5027778;28;20048;-77
2022/04/05 06:10:09;;;;;;;24.92;17.75;;;11.10;91.90;;;;;;5025235;28;20044;-81
2022/04/05 06:12:43;;;;;;;22.17;17.02;;;11.00;92.00;;;;;;5025134;28;20056;-78
2022/04/05 06:15:10;;;;;;;21.97;17.20;;;11.10;91.80;;;;;;5026247;28;20022;-74
2022/04/05 06:17:38;;;;;;;28.63;17.63;;;11.10;91.90;;;;;;5009691;28;20026;-77
2022/04/05 06:20:05;;;;;;;22.83;17.52;;;11.10;91.80;;;;;;5003259;28;20410;-75
2022/04/05 06:22:38;;;;;;;23.33;16.55;;;11.00;91.90;;;;;;5024056;28;20033;-87
2022/04/05 06:25:05;;;;;;;20.55;16.13;;;11.10;91.80;;;;;;5025143;28;21318;-80
2022/04/05 06:27:31;;;;;;;22.33;14.85;;;11.20;91.70;;;;;;5027107;28;20021;-76
2022/04/05 06:29:57;;;;;;;22.55;15.85;;;11.10;91.60;;;;;;5025594;28;20068;-78
2022/04/05 06:32:22;;;;;;;19.17;14.65;;;11.10;91.60;;;;;;5002329;28;20099;-74
2022/04/05 06:34:48;;;;;;;19.30;14.70;;;11.10;91.60;;;;;;5016444;28;20069;-73
2022/04/05 06:37:13;;;;;;;20.60;15.05;;;11.10;91.50;;;;;;5016985;28;20046;-74
2022/04/05 06:39:39;;;;;;;19.85;14.45;;;11.10;91.40;;;;;;5017007;28;20040;-75
2022/04/05 06:42:05;;;;;;;20.65;15.18;;;11.20;91.50;;;;;;5015291;28;21097;-75
2022/04/05 06:44:30;;;;;;;18.90;14.13;;;11.20;91.50;;;;;;5017013;28;20706;-74
2022/04/05 06:46:56;;;;;;;19.00;13.98;;;11.30;91.20;;;;;;5017668;28;20037;-74
2022/04/05 06:49:22;;;;;;;20.35;14.15;;;11.30;91.20;;;;;;5000432;28;20199;-74
2022/04/05 06:51:47;;;;;;;18.70;13.93;;;11.40;91.00;;;;;;5017227;28;20575;-74
2022/04/05 06:54:13;;;;;;;22.00;14.25;;;11.30;91.10;;;;;;5026844;28;20045;-75
2022/04/05 06:56:38;;;;;;;19.10;14.57;;;11.30;91.00;;;;;;5031745;28;20089;-75
2022/04/05 06:59:04;;;;;;;20.33;14.75;;;11.30;91.10;;;;;;5025931;28;20044;-74
2022/04/05 07:01:32;;;;;;;20.42;16.20;;;11.30;91.20;;;;;;5012114;28;20048;-74
2022/04/05 07:03:58;;;;;;;23.92;17.63;;;11.30;91.20;;;;;;5009912;28;20559;-74
2022/04/05 07:06:24;;;;;;;22.00;16.65;;;11.30;91.30;;;;;;5008388;28;20053;-74
2022/04/05 07:08:50;;;;;;;22.23;17.83;;;11.40;91.30;;;;;;5008120;28;20053;-74
2022/04/05 07:11:16;;;;;;;20.80;15.70;;;11.40;91.30;;;;;;5007991;28;20037;-74
2022/04/05 07:13:43;;;;;;;20.23;17.20;;;11.40;91.10;;;;;;5015285;28;20033;-74
2022/04/05 07:16:08;;;;;;;23.27;18.05;;;11.40;90.90;;;;;;5016883;28;20087;-73
2022/04/05 07:18:34;;;;;;;23.05;17.92;;;11.50;91.10;;;;;;5016659;28;20042;-73
2022/04/05 07:21:01;;;;;;;20.42;17.13;;;11.40;91.10;;;;;;4998148;28;20054;-74
2022/04/05 07:23:27;;;;;;;22.08;17.60;;;11.60;91.00;;;;;;5009064;28;20033;-75
2022/04/05 07:25:53;;;;;;;23.60;16.40;;;11.60;90.80;;;;;;5014604;28;20041;-73
2022/04/05 07:28:18;;;;;;;20.40;15.30;;;11.60;90.90;;;;;;5009225;28;20073;-74
2022/04/05 07:30:44;;;;;;;21.55;15.75;;;11.60;90.90;;;;;;5018327;28;20042;-77
2022/04/05 07:33:10;;;;;;;19.52;15.45;;;11.60;90.90;;;;;;5017450;28;20894;-76
2022/04/05 07:35:36;;;;;;;19.50;14.35;;;11.60;90.90;;;;;;5000797;28;20080;-72
2022/04/05 07:38:01;;;;;;;19.17;14.43;;;11.70;90.70;;;;;;5016600;28;20136;-73
2022/04/05 07:40:47;;;;;;;21.17;15.05;;;11.60;90.60;;;;;;5010844;28;20070;-73
2022/04/05 07:43:16;;;;;;;21.15;15.23;;;11.70;90.60;;;;;;5012055;28;20038;-75
2022/04/05 07:45:44;;;;;;;19.55;13.63;;;11.70;90.60;;;;;;5012067;28;20033;-74
2022/04/05 07:48:10;;;;;;;18.13;14.73;;;11.80;90.70;;;;;;5007923;28;20033;-73
2022/04/05 07:50:36;;;;;;;21.45;14.90;;;11.80;90.60;;;;;;5015204;28;20045;-76
2022/04/05 07:53:02;;;;;;;19.52;13.93;;;12.00;90.20;;;;;;5015204;28;20065;-75
2022/04/05 07:55:28;;;;;;;16.48;13.48;;;12.00;90.20;;;;;;5013952;28;20141;-75
2022/04/05 07:57:54;;;;;;;18.92;14.77;;;12.10;90.00;;;;;;5015977;28;20034;-76
2022/04/05 08:00:20;;;;;;;16.05;13.20;;;12.10;90.10;;;;;;5016085;28;20046;-74
2022/04/05 08:02:46;;;;;;;20.05;13.35;;;12.20;89.90;;;;;;5000719;28;20571;-72
2022/04/05 08:05:12;;;;;;;19.48;14.18;;;12.30;89.50;;;;;;5001648;28;20539;-74
2022/04/05 08:07:38;;;;;;;19.08;13.65;;;12.30;89.40;;;;;;5014925;28;20469;-74
2022/04/05 08:10:04;;;;;;;16.42;12.98;;;12.30;89.70;;;;;;5016242;28;20042;-75
2022/04/05 08:12:42;;;;;;;18.23;12.95;;;12.30;89.40;;;;;;5010327;28;20891;-75
2022/04/05 08:15:09;;;;;;;17.58;12.88;;;12.40;89.30;;;;;;4992375;28;20734;-76
2022/04/05 08:17:35;;;;;;;18.10;12.75;;;12.40;89.30;;;;;;5019185;28;20567;-77
2022/04/05 08:20:00;;;;;;;17.35;12.63;;;12.40;89.00;;;;;;5019048;28;20037;-77
2022/04/05 08:22:26;;;;;;;17.55;13.73;;;12.40;89.20;;;;;;5014069;28;20097;-78
2022/04/05 08:24:52;;;;;;;18.92;14.00;;;12.40;89.40;;;;;;5009628;28;20037;-76
2022/04/05 08:27:18;;;;;;;17.52;13.00;;;12.50;89.40;;;;;;5016688;28;20033;-78
2022/04/05 08:29:43;;;;;;;15.48;13.32;;;12.50;89.00;;;;;;5018912;28;20048;-73
2022/04/05 08:32:09;;;;;;;16.30;13.40;;;12.50;89.00;;;;;;4993282;28;20069;-74
2022/04/05 08:34:38;;;;;;;17.05;13.07;;;12.50;88.90;;;;;;5014647;28;20958;-75
2022/04/05 08:37:04;;;;;;;20.15;12.82;;;12.50;88.80;;;;;;5009200;28;20037;-75
2022/04/05 08:39:29;;;;;;;15.05;12.45;;;12.50;88.90;;;;;;5012879;28;20072;-75
2022/04/05 08:41:56;;;;;;;16.20;11.93;;;12.50;88.60;;;;;;5008131;28;20045;-76
2022/04/05 08:44:23;;;;;;;15.32;11.55;;;12.50;88.80;;;;;;5009088;28;20555;-75
2022/04/05 08:46:51;;;;;;;16.88;12.65;;;12.60;88.80;;;;;;4991826;28;20116;-75
2022/04/05 08:49:18;;;;;;;13.43;11.30;;;12.70;88.70;;;;;;5011005;28;20175;-76
2022/04/05 08:51:44;;;;;;;15.98;11.60;;;12.60;87.80;;;;;;5002892;28;20136;-74
2022/04/05 08:54:10;;;;;;;13.07;11.15;;;12.60;88.30;;;;;;5009866;28;20922;-74
2022/04/05 08:56:35;;;;;;;15.25;12.52;;;12.50;88.40;;;;;;5006516;28;20033;-74
2022/04/05 08:59:01;;;;;;;15.00;12.48;;;12.60;88.70;;;;;;5009399;28;21678;-74
2022/04/05 09:01:29;;;;;;;15.52;12.80;;;12.50;88.60;;;;;;5010769;28;20919;-74
2022/04/05 09:03:58;;;;;;;16.05;12.60;;;12.60;89.10;;;;;;4998014;28;20046;-75
2022/04/05 09:06:32;;;;;;;14.77;12.07;;;12.60;89.00;;;;;;5008957;28;20022;-74
2022/04/05 09:09:07;;;;;;;16.45;12.93;;;12.60;88.40;;;;;;5010444;28;20037;-73
2022/04/05 09:11:34;;;;;;;15.13;12.50;;;12.40;88.90;;;;;;5012929;28;20125;-74
2022/04/05 09:14:01;;;;;;;14.20;11.05;;;12.50;89.20;;;;;;4999048;28;21427;-75
2022/04/05 09:16:31;;;;;;;13.90;11.73;;;12.30;88.50;;;;;;5011738;28;20041;-75
2022/04/05 09:19:08;;;;;;;16.60;13.38;;;12.30;89.20;;;;;;5008170;28;20088;-75
2022/04/05 09:21:58;;;;;;;16.20;13.30;;;12.30;89.40;;;;;;5008416;28;20040;-74
2022/04/05 09:24:37;;;;;;;16.80;13.30;;;12.40;89.10;;;;;;5013160;28;20400;-74
2022/04/05 09:27:04;;;;;;;15.27;13.18;;;12.40;89.30;;;;;;5015121;28;20042;-74
2022/04/05 09:29:50;;;;;;;17.92;13.95;;;12.50;89.30;;;;;;5010812;28;20069;-74
2022/04/05 09:32:34;;;;;;;18.05;14.52;;;12.50;89.00;;;;;;5014228;28;20041;-76
2022/04/05 09:34:59;;;;;;;15.73;13.23;;;12.50;88.90;;;;;;4997103;28;20038;-75
2022/04/05 09:37:26;;;;;;;19.10;14.98;;;12.60;89.10;;;;;;5014907;28;20472;-75
2022/04/05 09:39:51;;;;;;;16.77;14.43;;;12.60;88.50;;;;;;5014358;28;20080;-76
2022/04/05 09:42:17;;;;;;;15.73;13.25;;;12.60;88.80;;;;;;5013805;28;20543;-76
2022/04/05 09:44:43;;;;;;;16.75;12.65;;;12.60;88.80;;;;;;5016401;28;20037;-81
2022/04/05 09:47:17;;;;;;;15.02;12.68;;;12.60;88.90;;;;;;5008195;28;20200;-78
2022/04/05 09:49:45;;;;;;;14.63;12.35;;;12.60;88.80;;;;;;5006968;28;20833;-77
2022/04/05 09:52:31;;;;;;;14.52;11.63;;;12.70;88.60;;;;;;5009464;28;20120;-77
2022/04/05 09:55:11;;;;;;;13.75;11.77;;;12.60;88.60;;;;;;5008739;28;20801;-76
2022/04/05 09:57:37;;;;;;;16.23;13.63;;;12.70;89.00;;;;;;5009194;28;20030;-76
2022/04/05 10:00:17;;;;;;;12.93;10.40;;;13.00;88.80;;;;;;5013260;28;20393;-75
2022/04/05 10:03:04;;;;;;;15.68;11.40;;;12.90;87.50;;;;;;5010542;28;20264;-74
2022/04/05 10:05:32;;;;;;;14.25;12.20;;;12.90;87.70;;;;;;5009648;28;20381;-74
2022/04/05 10:07:58;;;;;;;13.15;11.32;;;12.90;88.50;;;;;;5007888;28;20026;-76
2022/04/05 10:10:24;;;;;;;14.60;11.63;;;13.10;88.80;;;;;;5006965;28;20038;-74
2022/04/05 10:12:50;;;;;;;13.95;11.18;;;13.10;88.50;;;;;;4997052;28;20078;-76
2022/04/05 10:15:16;;;;;;;14.10;11.65;;;13.10;88.60;;;;;;5015362;28;20135;-75
2022/04/05 10:17:44;;;;;;;12.68;10.32;;;13.30;88.20;;;;;;5018475;28;20501;-76
2022/04/05 10:20:11;;;;;;;14.98;10.77;;;13.40;87.70;;;;;;5016810;28;20045;-76
2022/04/05 10:22:39;;;;;;;15.30;11.23;;;13.30;87.20;;;;;;4997813;28;20041;-74
2022/04/05 10:25:05;;;;;;;15.57;12.05;;;13.30;87.40;;;;;;5016505;28;20068;-75
2022/04/05 10:27:32;;;;;;;13.77;10.70;;;13.10;87.80;;;;;;5007562;28;20043;-75
2022/04/05 10:30:10;;;;;;;14.38;10.88;;;13.10;87.80;;;;;;5004432;28;20057;-76
2022/04/05 10:33:18;;;;;;;15.25;12.07;;;13.00;88.00;;;;;;4987670;28;20046;-74
2022/04/05 10:35:54;;;;;;;15.10;12.32;;;12.90;88.20;;;;;;4970617;28;20046;-73
2022/04/05 10:38:20;;;;;;;13.50;11.27;;;13.00;88.40;;;;;;5005038;28;20141;-76
2022/04/05 10:41:19;;;;;;;16.85;12.50;;;13.00;88.00;;;;;;5007558;28;20054;-76
2022/04/05 10:44:04;;;;;;;14.15;11.85;;;13.00;88.60;;;;;;5007630;28;20029;-75
2022/04/05 10:46:41;;;;;;;15.18;12.85;;;13.10;88.60;;;;;;5005077;28;20461;-73
2022/04/05 10:49:07;;;;;;;13.90;11.95;;;13.30;88.30;;;;;;4981837;28;20788;-76
2022/04/05 10:52:06;;;;;;;15.18;11.60;;;13.40;87.90;;;;;;4997012;28;20118;-75
2022/04/05 10:54:40;;;;;;;13.30;10.82;;;13.60;87.60;;;;;;4992259;28;20750;-75
2022/04/05 10:57:17;;;;;;;13.90;11.73;;;13.60;87.10;;;;;;4994449;28;20029;-77
2022/04/05 10:59:50;;;;;;;12.80;11.27;;;13.60;87.00;;;;;;5000905;28;20065;-75
2022/04/05 11:02:35;;;;;;;11.87;10.53;;;13.50;86.80;;;;;;5004273;28;20069;-76
2022/04/05 11:05:23;;;;;;;12.15;10.13;;;13.50;87.00;;;;;;5002261;28;20049;-75
2022/04/05 11:07:52;;;;;;;12.27;10.27;;;13.60;87.10;;;;;;4989952;28;20211;-76
2022/04/05 11:10:25;;;;;;;11.73;10.20;;;13.70;86.70;;;;;;5001586;28;20049;-76
2022/04/05 11:13:00;;;;;;;12.13;9.52;;;13.70;86.40;;;;;;5004291;28;20114;-75
2022/04/05 11:15:57;;;;;;;12.05;9.55;;;13.70;86.40;;;;;;5002491;28;20037;-74
2022/04/05 11:18:26;;;;;;;10.60;9.30;;;13.70;86.50;;;;;;5005767;28;20095;-76
2022/04/05 11:20:55;;;;;;;10.77;9.23;;;14.10;86.60;;;;;;5008359;28;20540;-75
2022/04/05 11:23:47;;;;;;;11.27;9.02;;;14.00;85.70;;;;;;5007169;28;20085;-77
2022/04/05 11:26:39;;;;;;;8.65;7.22;;;13.90;85.00;;;;;;5009284;28;20083;-77
2022/04/05 11:29:20;;;;;;;9.85;7.82;;;13.80;85.00;;;;;;5008121;28;20128;-77
2022/04/05 11:31:45;;;;;;;11.07;7.28;;;13.60;84.60;;;;;;5009631;28;20034;-76
2022/04/05 11:34:35;;;;;;;9.27;7.40;;;13.80;85.40;;;;;;5008369;28;20713;-76
2022/04/05 11:37:02;;;;;;;9.90;8.50;;;14.00;84.80;;;;;;4992019;28;20037;-76
2022/04/05 11:39:28;;;;;;;11.50;9.57;;;14.00;84.20;;;;;;4987804;28;20053;-76
2022/04/05 11:41:59;;;;;;;11.07;9.75;;;13.90;84.50;;;;;;5008779;28;20751;-76
2022/04/05 11:44:25;;;;;;;11.25;9.98;;;13.70;84.10;;;;;;5007057;28;20524;-77
2022/04/05 11:46:54;;;;;;;11.52;9.80;;;13.80;84.70;;;;;;5003209;28;20033;-77
2022/04/05 11:49:20;;;;;;;10.93;9.82;;;13.70;84.10;;;;;;5020435;28;20512;-76
2022/04/05 11:51:48;;;;;;;11.60;10.40;;;13.70;84.20;;;;;;5017472;28;20511;-77
2022/04/05 11:54:17;;;;;;;11.82;10.57;;;14.00;84.60;;;;;;5010680;28;20484;-78
2022/04/05 11:56:44;;;;;;;10.65;9.32;;;14.20;83.50;;;;;;5018836;28;20029;-77
2022/04/05 11:59:12;;;;;;;11.20;8.75;;;14.30;82.20;;;;;;5005029;28;20072;-76
2022/04/05 12:01:40;;;;;;;11.48;9.20;;;14.40;82.30;;;;;;5006515;28;20325;-77
2022/04/05 12:04:22;;;;;;;11.57;10.05;;;14.40;81.90;;;;;;5006183;28;20052;-78
2022/04/05 12:06:59;;;;;;;11.15;9.18;;;14.20;82.60;;;;;;5004460;28;20041;-74
2022/04/05 12:09:26;;;;;;;10.98;9.60;;;14.10;82.40;;;;;;4999929;28;20342;-75
2022/04/05 12:11:53;;;;;;;10.95;9.32;;;13.90;82.40;;;;;;5005500;28;20030;-75
2022/04/05 12:14:24;;;;;;;11.32;9.38;;;13.80;83.00;;;;;;4985204;28;20900;-75
2022/04/05 12:17:01;;;;;;;10.98;8.48;;;13.60;83.30;;;;;;5000038;28;20045;-75
2022/04/05 12:19:34;;;;;;;11.77;10.20;;;13.80;83.80;;;;;;4994164;28;20072;-75
2022/04/05 12:22:01;;;;;;;11.90;10.43;;;13.80;83.60;;;;;;5003843;28;20113;-78
2022/04/05 12:24:28;;;;;;;12.50;10.45;;;14.00;82.90;;;;;;5003617;28;20061;-75
2022/04/05 12:27:04;;;;;;;12.25;10.10;;;14.10;82.60;;;;;;5009058;28;20072;-76
2022/04/05 12:29:31;;;;;;;15.15;10.50;;;14.20;82.60;;;;;;5009106;28;20065;-74
2022/04/05 12:32:09;;;;;;;12.05;10.07;;;14.10;82.20;;;;;;5013098;28;20087;-74
2022/04/05 12:34:35;;;;;;;10.50;8.95;;;14.10;82.10;;;;;;5008419;28;20064;-75